Time;durP1;ratioP1;P1;durP2;ratioP2;P2;SDS_P1;SDS_P2;PMS_P1;PMS_P2;Temp;Humidity;BMP_temperature;BMP_pressure;BME280_temperature;BME280_humidity;BME280_pressure;Samples;Min_cycle;Max_cycle;Signal;HPM_P1;HPM_P2
2021/03/03 00:01:24;;;;;;;16.15;11.23;;;;;;;4.51;64.63;100267.94;5112834;28;20050;-68
2021/03/03 00:03:51;;;;;;;19.02;10.43;;;;;;;4.37;64.62;100263.75;5112787;28;20050;-68
2021/03/03 00:06:19;;;;;;;18.02;10.90;;;;;;;4.27;65.04;100268.84;5112407;28;20040;-68
2021/03/03 00:08:46;;;;;;;16.42;11.10;;;;;;;4.22;65.29;100268.38;5112337;28;20463;-68
2021/03/03 00:11:13;;;;;;;16.67;10.75;;;;;;;4.15;64.99;100270.59;5111215;28;20050;-68
2021/03/03 00:13:39;;;;;;;18.23;11.60;;;;;;;4.01;65.25;100270.81;5112557;28;20043;-68
2021/03/03 00:16:06;;;;;;;17.30;11.85;;;;;;;3.90;65.49;100270.78;5112408;28;20047;-68
2021/03/03 00:18:33;;;;;;;16.52;10.93;;;;;;;3.81;65.91;100272.28;5112405;28;20036;-68
2021/03/03 00:21:00;;;;;;;16.67;11.27;;;;;;;3.86;66.11;100272.78;5112662;28;20046;-68
2021/03/03 00:23:28;;;;;;;15.65;11.68;;;;;;;3.89;65.89;100272.56;5112365;28;20395;-68
2021/03/03 00:25:54;;;;;;;19.45;10.75;;;;;;;3.88;66.18;100276.13;5112310;28;20054;-68
2021/03/03 00:28:21;;;;;;;17.17;11.20;;;;;;;3.93;66.07;100273.16;5110868;28;20051;-68
2021/03/03 00:30:48;;;;;;;14.48;11.00;;;;;;;3.92;65.84;100272.34;5112483;28;20486;-68
2021/03/03 00:33:14;;;;;;;13.10;9.75;;;;;;;3.91;65.94;100273.25;5110974;28;20050;-68
2021/03/03 00:35:41;;;;;;;21.02;11.90;;;;;;;3.82;65.78;100271.34;5112114;28;20452;-68
2021/03/03 00:38:08;;;;;;;18.88;11.77;;;;;;;3.67;66.00;100270.72;5112107;28;20044;-68
2021/03/03 00:40:35;;;;;;;19.55;12.32;;;;;;;3.66;66.07;100274.25;5110908;28;20054;-69
2021/03/03 00:43:02;;;;;;;20.35;11.60;;;;;;;3.63;66.23;100271.00;5112085;28;20036;-68
2021/03/03 00:45:29;;;;;;;13.68;10.27;;;;;;;3.56;66.46;100272.44;5112044;28;20039;-69
2021/03/03 00:47:57;;;;;;;17.67;10.50;;;;;;;3.60;66.55;100268.66;5133906;28;20067;-68
2021/03/03 00:50:25;;;;;;;17.13;11.65;;;;;;;3.58;66.38;100270.53;5136779;28;20053;-69
2021/03/03 00:52:55;;;;;;;18.85;11.13;;;;;;;3.56;66.62;100270.66;5127989;28;20068;-68
2021/03/03 00:55:25;;;;;;;16.23;10.75;;;;;;;3.61;66.47;100272.94;5111757;28;20051;-68
2021/03/03 00:57:54;;;;;;;18.88;10.70;;;;;;;3.64;66.50;100263.06;5111663;28;20116;-68
2021/03/03 01:00:35;;;;;;;14.13;9.77;;;;;;;3.67;66.39;100269.84;5112124;28;20046;-68
2021/03/03 01:03:04;;;;;;;17.70;9.98;;;;;;;3.68;66.37;100261.91;5110635;28;20122;-69
2021/03/03 01:05:31;;;;;;;16.15;10.23;;;;;;;3.70;66.28;100261.78;5110648;28;20043;-68
2021/03/03 01:07:58;;;;;;;17.15;10.27;;;;;;;3.69;66.11;100260.94;5111988;28;20405;-68
2021/03/03 01:10:25;;;;;;;15.93;9.80;;;;;;;3.82;66.17;100266.09;5110499;28;20386;-69
2021/03/03 01:12:54;;;;;;;14.27;9.70;;;;;;;3.86;65.74;100264.94;5110712;28;20096;-69
2021/03/03 01:15:23;;;;;;;17.23;10.85;;;;;;;3.82;65.49;100258.25;5110589;28;20055;-69
2021/03/03 01:17:59;;;;;;;18.88;11.00;;;;;;;3.71;65.67;100246.00;5110758;28;20047;-68
2021/03/03 01:20:27;;;;;;;20.23;10.43;;;;;;;3.67;65.84;100256.78;5111782;28;20040;-68
2021/03/03 01:22:54;;;;;;;16.58;10.90;;;;;;;3.67;65.94;100255.00;5111583;28;20050;-69
2021/03/03 01:25:21;;;;;;;19.08;11.48;;;;;;;3.68;65.74;100261.06;5113054;28;20047;-68
2021/03/03 01:27:48;;;;;;;16.10;10.50;;;;;;;3.71;65.96;100260.81;5114475;28;20070;-68
2021/03/03 01:30:17;;;;;;;17.98;11.48;;;;;;;3.70;65.88;100259.16;5115719;28;20039;-68
2021/03/03 01:32:43;;;;;;;19.95;11.25;;;;;;;3.81;65.39;100253.16;5115730;28;20501;-69
2021/03/03 01:35:12;;;;;;;19.90;11.68;;;;;;;3.65;65.09;100256.91;5114400;28;20118;-69
2021/03/03 01:37:39;;;;;;;20.00;12.50;;;;;;;3.52;65.57;100247.47;5114072;28;20047;-68
2021/03/03 01:40:07;;;;;;;18.42;12.13;;;;;;;3.33;65.70;100234.88;5115609;28;20112;-68
2021/03/03 01:42:34;;;;;;;20.70;11.85;;;;;;;3.26;66.48;100239.69;5115488;28;20047;-68
2021/03/03 01:45:01;;;;;;;17.88;11.45;;;;;;;3.35;66.73;100238.22;5115430;28;20048;-68
2021/03/03 01:47:28;;;;;;;16.80;11.02;;;;;;;3.40;66.66;100247.41;5115480;28;20367;-69
2021/03/03 01:49:55;;;;;;;17.77;12.07;;;;;;;3.53;66.43;100242.09;5115286;28;20062;-69
2021/03/03 01:52:23;;;;;;;17.50;11.23;;;;;;;3.44;66.31;100242.78;5115457;28;20047;-68
2021/03/03 01:54:50;;;;;;;18.42;12.23;;;;;;;3.48;66.11;100239.00;5115232;28;20054;-68
2021/03/03 01:57:17;;;;;;;20.05;12.43;;;;;;;3.44;66.00;100232.31;5115390;28;20059;-68
2021/03/03 01:59:44;;;;;;;17.20;11.43;;;;;;;3.32;66.38;100243.69;5115134;28;20051;-68
2021/03/03 02:02:11;;;;;;;17.63;11.93;;;;;;;3.41;66.74;100251.66;5115138;28;20509;-68
2021/03/03 02:04:39;;;;;;;20.75;12.95;;;;;;;3.65;66.46;100250.84;5115074;28;20043;-69
2021/03/03 02:07:14;;;;;;;25.15;12.07;;;;;;;3.81;65.98;100251.38;5114984;27;20043;-68
2021/03/03 02:09:49;;;;;;;18.38;11.43;;;;;;;3.93;65.63;100250.47;5114990;28;20046;-68
2021/03/03 02:12:22;;;;;;;20.08;12.82;;;;;;;3.91;65.09;100246.28;5115054;28;20047;-68
2021/03/03 02:14:53;;;;;;;22.05;13.60;;;;;;;3.56;65.30;100246.28;5114919;28;20046;-69
2021/03/03 02:17:24;;;;;;;19.88;12.55;;;;;;;3.51;66.03;100245.75;5115015;28;20405;-68
2021/03/03 02:19:53;;;;;;;24.20;13.27;;;;;;;3.64;66.07;100257.84;5114830;28;20405;-68
2021/03/03 02:22:34;;;;;;;18.88;13.55;;;;;;;3.70;65.85;100244.31;5114605;28;20043;-69
2021/03/03 02:25:06;;;;;;;23.27;14.45;;;;;;;3.52;65.57;100235.22;5114701;28;20052;-68
2021/03/03 02:27:34;;;;;;;20.42;13.55;;;;;;;3.39;65.98;100240.50;5113629;28;20050;-68
2021/03/03 02:30:03;;;;;;;20.65;13.45;;;;;;;3.38;66.33;100243.22;5113585;28;20114;-69
2021/03/03 02:32:30;;;;;;;21.52;13.02;;;;;;;3.38;66.60;100245.81;5115119;28;20031;-68
2021/03/03 02:34:58;;;;;;;20.85;13.68;;;;;;;3.39;66.67;100235.28;5115198;28;20062;-69
2021/03/03 02:37:25;;;;;;;19.92;13.50;;;;;;;3.53;66.32;100233.44;5113818;28;20054;-69
2021/03/03 02:39:52;;;;;;;19.42;13.65;;;;;;;3.32;66.13;100226.22;5114690;28;20493;-68
2021/03/03 02:42:20;;;;;;;21.70;13.38;;;;;;;3.28;66.53;100226.53;5114992;28;20383;-69
2021/03/03 02:44:49;;;;;;;22.77;13.85;;;;;;;3.35;66.66;100228.59;5113252;28;20044;-69
2021/03/03 02:47:18;;;;;;;22.55;13.65;;;;;;;3.41;66.43;100228.16;5114723;28;20035;-68
2021/03/03 02:49:45;;;;;;;24.70;14.25;;;;;;;3.36;66.38;100234.66;5114419;28;20047;-68
2021/03/03 02:52:12;;;;;;;15.48;11.43;;;;;;;3.29;66.42;100231.66;5114644;28;20051;-69
2021/03/03 02:54:39;;;;;;;19.83;11.95;;;;;;;3.31;66.79;100231.56;5114408;28;20036;-68
2021/03/03 02:57:06;;;;;;;25.13;13.25;;;;;;;3.21;66.20;100231.38;5114556;28;20047;-68
2021/03/03 02:59:37;;;;;;;17.48;11.98;;;;;;;3.06;66.60;100222.00;5114295;28;20050;-68
2021/03/03 03:02:07;;;;;;;23.63;13.18;;;;;;;2.92;67.08;100223.84;5113132;28;20501;-68
2021/03/03 03:04:39;;;;;;;18.55;11.43;;;;;;;2.88;67.44;100214.56;5114258;28;20093;-69
2021/03/03 03:07:08;;;;;;;15.68;10.98;;;;;;;2.92;67.40;100207.34;5114434;28;20059;-69
2021/03/03 03:09:38;;;;;;;18.23;11.80;;;;;;;2.93;67.05;100207.22;5114290;28;20046;-68
2021/03/03 03:12:07;;;;;;;17.27;11.30;;;;;;;2.88;66.98;100222.38;5114241;28;20040;-69
2021/03/03 03:14:34;;;;;;;16.85;10.00;;;;;;;2.94;67.25;100221.13;5114027;28;20040;-68
2021/03/03 03:17:01;;;;;;;15.45;10.13;;;;;;;3.00;67.19;100212.84;5114044;28;20035;-68
2021/03/03 03:19:35;;;;;;;17.38;9.55;;;;;;;3.05;67.17;100218.56;5113823;28;20039;-68
2021/03/03 03:22:03;;;;;;;19.93;10.53;;;;;;;3.06;66.98;100216.78;5114136;27;20036;-68
2021/03/03 03:24:31;;;;;;;12.50;9.68;;;;;;;3.08;66.70;100215.75;5113807;28;20300;-68
2021/03/03 03:26:59;;;;;;;16.33;10.23;;;;;;;2.95;66.29;100204.50;5113909;28;20130;-68
2021/03/03 03:29:26;;;;;;;15.73;10.65;;;;;;;2.82;66.59;100207.16;5113565;28;20047;-68
2021/03/03 03:31:54;;;;;;;14.45;10.40;;;;;;;2.77;67.08;100209.25;5113870;28;20119;-68
2021/03/03 03:34:21;;;;;;;19.17;9.82;;;;;;;2.77;67.33;100211.84;5113582;28;20052;-69
2021/03/03 03:36:49;;;;;;;15.35;9.95;;;;;;;2.83;67.19;100203.59;5113775;28;20514;-68
2021/03/03 03:39:16;;;;;;;18.45;10.57;;;;;;;2.93;67.38;100209.81;5112097;28;20063;-69
2021/03/03 03:41:44;;;;;;;16.50;9.77;;;;;;;2.92;66.97;100207.34;5113592;28;20051;-68
2021/03/03 03:44:13;;;;;;;21.20;11.27;;;;;;;2.90;66.86;100207.44;5113281;28;20047;-68
2021/03/03 03:46:41;;;;;;;24.92;13.57;;;;;;;2.89;67.07;100210.16;5113478;28;20031;-68
2021/03/03 03:49:08;;;;;;;21.10;11.50;;;;;;;2.86;67.03;100215.63;5112855;28;20043;-68
2021/03/03 03:51:39;;;;;;;15.60;10.63;;;;;;;2.96;67.40;100208.78;5113554;28;20127;-69
2021/03/03 03:54:07;;;;;;;18.88;11.80;;;;;;;2.98;67.10;100206.91;5113479;28;20028;-68
2021/03/03 03:56:35;;;;;;;21.63;12.10;;;;;;;2.97;67.11;100210.44;5113295;28;20501;-68
2021/03/03 03:59:02;;;;;;;21.65;12.00;;;;;;;2.99;66.96;100219.03;5113251;28;20405;-68
2021/03/03 04:01:29;;;;;;;14.30;10.00;;;;;;;2.93;66.70;100216.81;5113319;27;20561;-68
2021/03/03 04:03:55;;;;;;;20.25;11.30;;;;;;;2.82;66.82;100219.38;5113092;28;20045;-68
2021/03/03 04:06:22;;;;;;;18.80;11.55;;;;;;;2.79;67.15;100212.59;5111816;28;20529;-69
2021/03/03 04:08:49;;;;;;;17.42;11.80;;;;;;;2.78;67.01;100218.78;5112982;28;20042;-68
2021/03/03 04:11:16;;;;;;;17.05;11.23;;;;;;;2.69;67.22;100224.63;5113188;28;20050;-68
2021/03/03 04:13:43;;;;;;;13.45;10.68;;;;;;;2.67;67.28;100232.56;5113222;28;20050;-68
2021/03/03 04:16:09;;;;;;;21.30;11.57;;;;;;;2.67;67.57;100227.34;5112951;28;20048;-69
2021/03/03 04:18:37;;;;;;;14.90;11.48;;;;;;;2.70;67.46;100234.97;5111454;28;20048;-68
2021/03/03 04:21:04;;;;;;;17.42;11.70;;;;;;;2.71;67.59;100234.03;5112923;28;20047;-68
2021/03/03 04:23:30;;;;;;;20.48;11.77;;;;;;;2.70;67.56;100221.91;5112874;28;20039;-69
2021/03/03 04:25:58;;;;;;;18.67;11.15;;;;;;;2.65;67.29;100221.41;5112625;28;20040;-68
2021/03/03 04:28:25;;;;;;;19.60;11.75;;;;;;;2.59;67.65;100228.81;5112729;28;20052;-69
2021/03/03 04:30:52;;;;;;;16.85;11.13;;;;;;;2.55;67.94;100225.59;5112735;28;20050;-69
2021/03/03 04:33:19;;;;;;;17.40;10.68;;;;;;;2.61;67.87;100227.78;5123011;28;20023;-68
2021/03/03 04:35:46;;;;;;;15.10;10.27;;;;;;;2.60;67.79;100227.88;5139283;28;20032;-68
2021/03/03 04:38:12;;;;;;;18.33;10.88;;;;;;;2.53;67.79;100224.88;5138785;28;20035;-68
2021/03/03 04:40:39;;;;;;;17.00;11.18;;;;;;;2.52;67.88;100223.19;5115711;28;20047;-69
2021/03/03 04:43:06;;;;;;;18.65;10.88;;;;;;;2.48;67.88;100225.16;5112996;28;20116;-69
2021/03/03 04:45:34;;;;;;;16.55;11.32;;;;;;;2.47;68.09;100222.69;5112841;28;20497;-68
2021/03/03 04:48:01;;;;;;;18.92;11.43;;;;;;;2.43;67.96;100218.59;5112795;28;20063;-68
2021/03/03 04:50:28;;;;;;;17.55;11.32;;;;;;;2.42;68.29;100224.78;5112388;28;20553;-68
2021/03/03 04:52:55;;;;;;;16.98;10.45;;;;;;;2.47;68.24;100233.13;5112499;28;20035;-69
2021/03/03 04:55:21;;;;;;;15.18;9.93;;;;;;;2.54;68.37;100233.53;5112414;28;20044;-69
2021/03/03 04:57:48;;;;;;;20.10;11.25;;;;;;;2.62;67.67;100224.22;5112400;28;20056;-68
2021/03/03 05:00:16;;;;;;;19.42;11.23;;;;;;;2.67;67.98;100223.91;5110421;28;20055;-69
2021/03/03 05:02:44;;;;;;;27.38;11.45;;;;;;;2.63;67.54;100235.50;5110976;28;20490;-69
2021/03/03 05:05:12;;;;;;;17.17;11.38;;;;;;;2.61;67.79;100240.84;5112218;28;20075;-69
2021/03/03 05:07:39;;;;;;;16.65;11.48;;;;;;;2.70;67.92;100231.53;5112201;28;20048;-68
2021/03/03 05:10:07;;;;;;;18.33;12.10;;;;;;;2.63;67.56;100230.28;5112275;28;20062;-68
2021/03/03 05:12:33;;;;;;;18.52;11.48;;;;;;;2.54;67.79;100230.94;5112359;28;20052;-69
2021/03/03 05:15:00;;;;;;;19.08;11.38;;;;;;;2.60;68.18;100239.16;5112270;28;20429;-69
2021/03/03 05:17:27;;;;;;;19.95;11.77;;;;;;;2.61;68.06;100226.94;5112188;28;20043;-68
2021/03/03 05:19:55;;;;;;;19.13;12.25;;;;;;;2.62;67.86;100233.84;5110919;28;20067;-69
2021/03/03 05:22:21;;;;;;;19.15;11.60;;;;;;;2.64;68.31;100234.56;5112474;28;20048;-69
2021/03/03 05:24:48;;;;;;;20.65;12.43;;;;;;;2.69;68.14;100233.31;5112174;28;20036;-69
2021/03/03 05:27:15;;;;;;;19.60;11.65;;;;;;;2.69;67.58;100224.63;5112152;28;20051;-68
2021/03/03 05:29:41;;;;;;;18.80;12.38;;;;;;;2.65;68.17;100224.03;5112006;28;20047;-68
2021/03/03 05:32:09;;;;;;;22.55;13.15;;;;;;;2.72;68.00;100219.19;5110793;28;20051;-69
2021/03/03 05:34:36;;;;;;;22.90;12.30;;;;;;;2.72;67.71;100212.19;5110613;28;20432;-68
2021/03/03 05:37:03;;;;;;;26.90;13.50;;;;;;;2.81;67.79;100215.91;5112139;28;20071;-68
2021/03/03 05:39:30;;;;;;;24.27;13.35;;;;;;;2.86;67.70;100211.22;5111847;28;20047;-69
2021/03/03 05:42:00;;;;;;;19.98;12.05;;;;;;;2.85;67.28;100219.97;5111951;28;20125;-68
2021/03/03 05:44:27;;;;;;;17.67;11.15;;;;;;;2.81;67.36;100221.13;5111789;28;20494;-69
2021/03/03 05:46:56;;;;;;;17.15;11.68;;;;;;;2.84;67.52;100215.72;5111970;28;20044;-68
2021/03/03 05:49:25;;;;;;;18.55;11.98;;;;;;;2.70;67.48;100206.25;5110462;28;20142;-68
2021/03/03 05:51:53;;;;;;;21.83;11.45;;;;;;;2.61;67.76;100225.19;5111867;28;20043;-69
2021/03/03 05:54:21;;;;;;;17.05;11.80;;;;;;;2.68;67.84;100225.56;5111824;28;20032;-68
2021/03/03 05:56:49;;;;;;;20.35;12.70;;;;;;;2.66;67.72;100217.03;5111942;28;20063;-69
2021/03/03 05:59:17;;;;;;;20.73;13.63;;;;;;;2.55;67.53;100211.72;5110280;28;20093;-68
2021/03/03 06:01:45;;;;;;;21.67;13.38;;;;;;;2.42;67.64;100211.72;5111704;28;20039;-69
2021/03/03 06:04:20;;;;;;;20.02;12.65;;;;;;;2.24;68.11;100205.97;5110367;28;20382;-69
2021/03/03 06:06:47;;;;;;;22.15;13.60;;;;;;;2.27;68.75;100205.78;5111731;28;20055;-68
2021/03/03 06:09:14;;;;;;;19.73;12.57;;;;;;;2.37;68.68;100206.00;5111538;28;20044;-68
2021/03/03 06:11:42;;;;;;;20.30;11.70;;;;;;;2.42;68.61;100209.13;5113489;28;20039;-69
2021/03/03 06:14:08;;;;;;;22.17;12.13;;;;;;;2.47;68.58;100210.44;5115317;28;20046;-68
2021/03/03 06:16:35;;;;;;;17.92;10.60;;;;;;;2.52;68.37;100211.91;5115349;28;20044;-68
2021/03/03 06:19:03;;;;;;;15.43;9.90;;;;;;;2.50;68.14;100212.03;5114985;28;20044;-68
2021/03/03 06:21:31;;;;;;;15.80;10.43;;;;;;;2.50;67.92;100206.81;5115446;27;20043;-69
2021/03/03 06:24:03;;;;;;;21.08;11.50;;;;;;;2.46;68.07;100205.34;5115244;28;20477;-69
2021/03/03 06:26:30;;;;;;;16.65;10.75;;;;;;;2.50;68.43;100212.03;5114904;28;20043;-69
2021/03/03 06:28:58;;;;;;;17.70;11.02;;;;;;;2.59;68.19;100208.78;5114947;28;20036;-69
2021/03/03 06:31:30;;;;;;;14.43;9.77;;;;;;;2.63;68.14;100204.16;5115072;28;20578;-69
2021/03/03 06:34:11;;;;;;;14.07;10.10;;;;;;;2.73;68.09;100207.78;5115025;28;20040;-69
2021/03/03 06:36:39;;;;;;;17.73;10.63;;;;;;;2.82;68.33;100206.34;5115255;28;20069;-69
2021/03/03 06:39:23;;;;;;;16.95;10.35;;;;;;;2.87;68.12;100199.00;5115070;28;20471;-68
2021/03/03 06:41:51;;;;;;;14.23;9.70;;;;;;;3.02;68.19;100199.66;5114962;28;20046;-69
2021/03/03 06:44:19;;;;;;;16.30;10.88;;;;;;;3.20;67.82;100200.97;5114637;28;20044;-69
2021/03/03 06:47:01;;;;;;;24.63;12.43;;;;;;;3.31;67.28;100206.25;5114853;28;20052;-69
2021/03/03 06:49:29;;;;;;;19.38;12.13;;;;;;;3.36;67.06;100208.53;5113167;28;20051;-68
2021/03/03 06:51:56;;;;;;;19.35;11.32;;;;;;;3.33;67.03;100209.56;5114545;28;20047;-68
2021/03/03 06:54:24;;;;;;;24.98;14.23;;;;;;;3.34;66.79;100213.84;5114585;28;20119;-69
2021/03/03 06:56:52;;;;;;;21.13;11.93;;;;;;;3.30;66.92;100215.00;5114608;28;20043;-69
2021/03/03 06:59:21;;;;;;;23.27;12.65;;;;;;;3.33;66.73;100206.13;5114334;28;20040;-68
2021/03/03 07:01:50;;;;;;;20.00;12.70;;;;;;;3.33;67.04;100208.75;5114414;28;20040;-68
2021/03/03 07:04:26;;;;;;;20.30;12.40;;;;;;;3.40;66.91;100213.41;5112866;28;20497;-68
2021/03/03 07:06:54;;;;;;;17.67;12.00;;;;;;;3.40;66.46;100212.59;5114512;27;20051;-68
2021/03/03 07:09:24;;;;;;;18.60;11.50;;;;;;;3.37;66.42;100205.78;5112873;28;20554;-69
2021/03/03 07:12:01;;;;;;;20.13;13.02;;;;;;;3.35;66.50;100212.09;5115515;28;20505;-69
2021/03/03 07:14:30;;;;;;;20.48;12.20;;;;;;;3.32;66.67;100212.31;5115500;28;20413;-69
2021/03/03 07:17:13;;;;;;;21.98;13.23;;;;;;;3.33;66.85;100209.56;5114400;28;20144;-69
2021/03/03 07:19:42;;;;;;;20.88;12.63;;;;;;;3.40;66.83;100210.78;5115255;28;20052;-69
2021/03/03 07:22:24;;;;;;;18.15;12.82;;;;;;;3.54;67.06;100199.31;5113979;28;20043;-69
2021/03/03 07:24:52;;;;;;;19.77;12.20;;;;;;;3.70;67.00;100207.69;5114105;28;20040;-68
2021/03/03 07:27:20;;;;;;;19.85;12.50;;;;;;;3.81;66.39;100211.31;5114094;28;20505;-68
2021/03/03 07:29:49;;;;;;;20.33;12.43;;;;;;;3.89;66.30;100224.63;5113897;28;20044;-69
2021/03/03 07:32:18;;;;;;;18.73;12.30;;;;;;;3.95;66.03;100218.94;5114018;28;20043;-68
2021/03/03 07:34:47;;;;;;;25.83;13.50;;;;;;;3.95;65.81;100221.53;5112478;28;20040;-69
2021/03/03 07:37:16;;;;;;;25.17;13.95;;;;;;;3.93;65.83;100221.69;5113773;28;20051;-69
2021/03/03 07:39:48;;;;;;;21.08;12.32;;;;;;;4.05;66.09;100230.38;5113652;28;20084;-69
2021/03/03 07:42:19;;;;;;;21.02;12.52;;;;;;;4.20;65.54;100220.50;5114072;28;20054;-68
2021/03/03 07:44:46;;;;;;;19.55;11.93;;;;;;;4.26;65.35;100224.47;5113758;28;20050;-69
2021/03/03 07:47:16;;;;;;;20.00;13.05;;;;;;;4.28;65.08;100223.38;5112808;28;20059;-69
2021/03/03 07:49:45;;;;;;;21.10;12.40;;;;;;;4.35;65.61;100226.38;5113596;28;20109;-69
2021/03/03 07:52:13;;;;;;;21.52;13.60;;;;;;;4.54;65.34;100220.56;5113832;28;20040;-68
2021/03/03 07:54:40;;;;;;;19.73;12.13;;;;;;;4.66;64.89;100217.81;5112072;28;20494;-69
2021/03/03 07:57:09;;;;;;;21.02;12.95;;;;;;;4.67;64.38;100218.63;5112205;28;20043;-69
2021/03/03 07:59:37;;;;;;;23.95;12.68;;;;;;;4.62;64.35;100219.00;5113250;28;20043;-69
2021/03/03 08:02:04;;;;;;;19.20;12.63;;;;;;;4.64;63.99;100211.00;5113503;28;20047;-69
2021/03/03 08:04:37;;;;;;;18.88;13.18;;;;;;;4.55;64.02;100222.22;5112950;28;20057;-69
2021/03/03 08:07:15;;;;;;;18.23;12.35;;;;;;;4.45;64.12;100214.25;5112079;28;20050;-69
2021/03/03 08:10:31;;;;;;;18.80;12.55;;;;;;;4.48;64.10;100220.06;5113148;28;20111;-69
2021/03/03 08:13:00;;;;;;;25.10;13.50;;;;;;;4.46;64.36;100216.75;5113224;28;20044;-68
2021/03/03 08:15:36;;;;;;;21.70;13.55;;;;;;;4.56;64.34;100205.53;5113065;28;20062;-68
2021/03/03 08:18:23;;;;;;;21.58;12.88;;;;;;;4.63;64.09;100209.34;5112786;28;20048;-67
2021/03/03 08:20:52;;;;;;;16.80;11.75;;;;;;;4.71;64.33;100217.44;5139051;28;20043;-67
2021/03/03 08:23:42;;;;;;;19.25;11.55;;;;;;;4.95;64.51;100217.31;5139626;28;20069;-67
2021/03/03 08:26:29;;;;;;;20.52;11.85;;;;;;;5.19;64.11;100206.66;5116815;28;20560;-67
2021/03/03 08:29:29;;;;;;;22.73;12.30;;;;;;;5.38;63.80;100209.41;5112992;28;20043;-67
2021/03/03 08:32:21;;;;;;;19.48;11.77;;;;;;;5.57;63.17;100205.31;5111760;28;20067;-68
2021/03/03 08:34:53;;;;;;;30.23;13.85;;;;;;;5.66;62.94;100210.63;5111897;28;20040;-68
2021/03/03 08:37:38;;;;;;;22.75;14.80;;;;;;;5.75;62.83;100213.44;5111401;28;20131;-68
2021/03/03 08:40:25;;;;;;;26.48;13.82;;;;;;;5.76;62.54;100202.84;5111624;28;20058;-68
2021/03/03 08:42:52;;;;;;;22.25;14.25;;;;;;;5.77;62.63;100203.66;5112931;28;20097;-68
2021/03/03 08:45:20;;;;;;;21.05;13.82;;;;;;;5.81;62.63;100205.91;5111425;28;20051;-68
2021/03/03 08:47:59;;;;;;;19.75;13.80;;;;;;;5.85;62.25;100203.84;5111104;28;20056;-67
2021/03/03 08:50:43;;;;;;;24.13;14.57;;;;;;;5.88;62.39;100201.81;5112454;28;20481;-68
2021/03/03 08:53:34;;;;;;;;;;;;;;;5.97;62.45;100200.25;5112835;28;20496;-67
2021/03/03 08:56:37;;;;;;;25.30;14.52;;;;;;;6.05;62.32;100191.72;5112363;28;19958;-67
2021/03/03 08:59:05;;;;;;;23.73;13.55;;;;;;;6.09;62.15;100198.38;5112383;28;20539;-67
2021/03/03 09:01:50;;;;;;;26.25;14.60;;;;;;;6.13;62.09;100184.84;5112263;28;20049;-67
2021/03/03 09:04:18;;;;;;;20.55;14.52;;;;;;;6.15;62.16;100184.72;5110124;28;20147;-67
2021/03/03 09:06:46;;;;;;;25.65;15.82;;;;;;;6.18;62.38;100184.47;5112144;28;20502;-67
2021/03/03 09:09:14;;;;;;;25.20;15.25;;;;;;;6.23;62.26;100182.25;5112444;28;20076;-69
2021/03/03 09:11:42;;;;;;;28.88;15.55;;;;;;;6.31;62.43;100187.69;5112417;28;20035;-67
2021/03/03 09:14:09;;;;;;;25.45;15.43;;;;;;;6.50;62.25;100181.69;5111985;28;20044;-67
2021/03/03 09:16:51;;;;;;;25.95;15.65;;;;;;;6.68;61.77;100179.25;5112067;28;20043;-67
2021/03/03 09:19:18;;;;;;;22.55;14.85;;;;;;;6.72;61.24;100183.28;5111929;28;20052;-67
2021/03/03 09:21:45;;;;;;;23.15;15.30;;;;;;;6.78;61.55;100181.94;5112184;28;20516;-67
2021/03/03 09:24:13;;;;;;;27.25;15.40;;;;;;;6.94;61.15;100180.44;5111862;28;20042;-67
2021/03/03 09:26:43;;;;;;;23.60;14.73;;;;;;;7.04;61.01;100177.00;5112162;28;20126;-67
2021/03/03 09:29:30;;;;;;;27.92;13.95;;;;;;;7.14;60.58;100180.44;5112002;28;20047;-67
2021/03/03 09:31:58;;;;;;;27.42;14.63;;;;;;;7.28;60.73;100182.69;5112160;28;20043;-67
2021/03/03 09:34:25;;;;;;;22.63;14.43;;;;;;;7.43;60.18;100172.59;5112277;28;20078;-67
2021/03/03 09:37:02;;;;;;;34.45;15.27;;;;;;;7.57;60.07;100168.72;5112190;28;20562;-67
2021/03/03 09:39:30;;;;;;;26.25;14.68;;;;;;;7.73;59.77;100163.69;5111852;28;20052;-67
2021/03/03 09:42:03;;;;;;;33.35;17.02;;;;;;;7.88;58.91;100157.03;5112028;28;20048;-67
2021/03/03 09:44:44;;;;;;;28.23;14.98;;;;;;;7.88;58.38;100156.19;5111820;28;20497;-67
2021/03/03 09:47:11;;;;;;;28.55;14.20;;;;;;;7.95;58.85;100157.28;5115045;28;20043;-67
2021/03/03 09:49:38;;;;;;;31.15;15.82;;;;;;;8.13;58.54;100157.38;5115742;28;20044;-67
2021/03/03 09:52:06;;;;;;;35.00;17.60;;;;;;;8.27;58.48;100151.63;5116144;28;20047;-67
2021/03/03 09:54:34;;;;;;;32.63;14.68;;;;;;;8.41;57.92;100148.56;5114701;28;20051;-67
2021/03/03 09:57:04;;;;;;;24.75;14.60;;;;;;;8.59;57.96;100150.41;5115858;28;20051;-67
2021/03/03 09:59:32;;;;;;;24.55;13.73;;;;;;;8.74;57.49;100148.94;5115671;28;20047;-68
2021/03/03 10:01:59;;;;;;;26.85;14.75;;;;;;;8.94;57.44;100144.38;5115884;28;20077;-67
2021/03/03 10:04:27;;;;;;;56.75;30.20;;;;;;;9.11;57.13;100138.28;5115909;28;20048;-67
2021/03/03 10:06:54;;;;;;;29.48;18.92;;;;;;;9.26;56.52;100129.81;5115845;28;20047;-67
2021/03/03 10:09:21;;;;;;;26.65;14.15;;;;;;;9.33;55.91;100139.63;5115245;28;20036;-67
2021/03/03 10:11:48;;;;;;;20.73;12.45;;;;;;;9.48;55.64;100133.81;5115456;28;20047;-67
2021/03/03 10:14:15;;;;;;;20.00;13.13;;;;;;;9.62;55.22;100138.53;5115334;28;20048;-67
2021/03/03 10:16:57;;;;;;;20.00;12.95;;;;;;;9.81;54.95;100132.25;5115434;28;20047;-67
2021/03/03 10:19:24;;;;;;;21.65;13.00;;;;;;;9.97;54.26;100131.50;5113955;28;20101;-67
2021/03/03 10:21:51;;;;;;;19.65;12.32;;;;;;;10.13;53.88;100126.31;5115154;28;20047;-67
2021/03/03 10:24:19;;;;;;;22.98;14.23;;;;;;;10.29;53.36;100133.53;5114918;28;20040;-66
2021/03/03 10:26:47;;;;;;;22.13;12.88;;;;;;;10.41;52.60;100129.63;5115060;28;20428;-67
2021/03/03 10:29:31;;;;;;;23.08;11.77;;;;;;;10.60;51.81;100132.00;5114928;28;20042;-67
2021/03/03 10:32:09;;;;;;;23.02;12.32;;;;;;;10.74;51.05;100125.28;5115122;28;20043;-67
2021/03/03 10:34:36;;;;;;;21.77;11.70;;;;;;;10.85;50.93;100124.13;5114972;28;20143;-67
2021/03/03 10:37:03;;;;;;;19.15;11.90;;;;;;;11.08;50.52;100125.16;5115073;28;20040;-67
2021/03/03 10:39:30;;;;;;;20.67;11.27;;;;;;;11.27;49.97;100115.28;5114637;28;20058;-67
2021/03/03 10:42:01;;;;;;;21.05;11.07;;;;;;;11.42;48.63;100118.88;5115051;28;20043;-67
2021/03/03 10:44:39;;;;;;;21.80;11.07;;;;;;;11.53;47.69;100121.22;5114660;28;20040;-68
2021/03/03 10:47:07;;;;;;;18.63;10.85;;;;;;;11.69;47.72;100120.38;5114899;28;20039;-67
2021/03/03 10:49:38;;;;;;;18.42;10.48;;;;;;;11.83;46.85;100117.06;5114603;28;20471;-67
2021/03/03 10:52:20;;;;;;;14.25;9.40;;;;;;;12.02;45.05;100118.50;5114795;27;20048;-67
2021/03/03 10:54:47;;;;;;;14.55;9.00;;;;;;;12.17;44.19;100113.34;5110450;28;20047;-67
2021/03/03 10:57:14;;;;;;;14.25;8.02;;;;;;;12.36;43.70;100109.44;5114083;28;20050;-67
2021/03/03 10:59:41;;;;;;;16.15;9.20;;;;;;;12.54;42.91;100104.72;5114326;28;20051;-67
2021/03/03 11:02:09;;;;;;;20.88;9.57;;;;;;;12.71;42.47;100108.13;5114787;28;20040;-67
2021/03/03 11:04:40;;;;;;;11.77;8.27;;;;;;;12.73;40.62;100108.75;5114462;28;20040;-67
2021/03/03 11:07:07;;;;;;;13.18;8.70;;;;;;;12.77;40.64;100094.16;5114657;28;20051;-67
2021/03/03 11:09:35;;;;;;;12.73;8.48;;;;;;;12.86;40.82;100098.41;5114210;28;20485;-68
2021/03/03 11:12:04;;;;;;;13.15;8.32;;;;;;;12.99;39.95;100099.66;5114365;28;20035;-68
2021/03/03 11:14:31;;;;;;;12.48;8.00;;;;;;;13.08;40.00;100102.06;5114314;28;20463;-68
2021/03/03 11:17:01;;;;;;;12.57;7.85;;;;;;;13.12;39.49;100087.44;5114435;28;20047;-68
2021/03/03 11:19:28;;;;;;;11.77;7.93;;;;;;;13.18;39.45;100085.91;5112806;28;20077;-68
2021/03/03 11:21:59;;;;;;;13.70;8.70;;;;;;;13.27;38.74;100100.00;5114304;28;20043;-68
2021/03/03 11:24:26;;;;;;;12.60;9.25;;;;;;;13.27;38.35;100086.72;5114373;28;20490;-68
2021/03/03 11:26:52;;;;;;;15.57;9.85;;;;;;;13.39;38.09;100087.94;5114361;27;20398;-68
2021/03/03 11:29:19;;;;;;;28.63;17.25;;;;;;;13.45;38.50;100083.72;5114013;28;20093;-68